Time;durP1;ratioP1;P1;durP2;ratioP2;P2;SDS_P1;SDS_P2;PMS_P1;PMS_P2;Temp;Humidity;BMP_temperature;BMP_pressure;BME280_temperature;BME280_humidity;BME280_pressure;Samples;Min_cycle;Max_cycle;Signal;HPM_P1;HPM_P2
2021/06/08 00:00:13;;;;;;;6.50;4.85;;;;;;;18.10;55.45;100584.88;5011271;28;20056;-83
2021/06/08 00:02:40;;;;;;;6.60;4.70;;;;;;;18.12;54.94;100586.59;5011651;28;20483;-83
2021/06/08 00:05:07;;;;;;;5.13;4.68;;;;;;;18.11;55.39;100580.41;5009774;28;20498;-83
2021/06/08 00:07:53;;;;;;;5.80;4.40;;;;;;;18.03;55.71;100578.28;5011497;28;20046;-83
2021/06/08 00:10:20;;;;;;;4.80;4.18;;;;;;;18.07;55.31;100578.91;5011498;28;20061;-83
2021/06/08 00:12:47;;;;;;;6.85;4.72;;;;;;;18.05;55.22;100575.50;5011661;28;20054;-84
2021/06/08 00:15:15;;;;;;;5.40;4.80;;;;;;;18.04;55.69;100579.97;5011102;28;20409;-83
2021/06/08 00:17:44;;;;;;;6.20;4.90;;;;;;;18.01;56.00;100580.19;5011177;28;20056;-83
2021/06/08 00:20:13;;;;;;;8.63;5.25;;;;;;;18.00;55.76;100581.19;5000653;28;20050;-83
2021/06/08 00:22:44;;;;;;;5.88;4.43;;;;;;;17.98;56.03;100578.63;4995236;28;20060;-83
2021/06/08 00:25:36;;;;;;;5.30;4.80;;;;;;;17.94;55.75;100581.66;4995121;28;20057;-83
2021/06/08 00:28:04;;;;;;;5.18;4.68;;;;;;;17.97;55.80;100574.28;4995013;28;20058;-83
2021/06/08 00:30:59;;;;;;;8.48;4.90;;;;;;;17.90;56.06;100577.53;4995346;28;20058;-83
2021/06/08 00:33:26;;;;;;;5.22;3.90;;;;;;;17.92;55.37;100573.78;4999159;28;20510;-83
2021/06/08 00:35:58;;;;;;;5.00;4.03;;;;;;;17.87;55.77;100575.91;5014695;28;20083;-83
2021/06/08 00:38:25;;;;;;;5.45;4.13;;;;;;;17.87;55.25;100578.56;5014974;28;20076;-83
2021/06/08 00:40:51;;;;;;;4.13;3.72;;;;;;;17.86;55.24;100573.38;5014801;28;20092;-83
2021/06/08 00:43:24;;;;;;;5.80;4.43;;;;;;;17.80;55.29;100572.03;5014532;28;20050;-83
2021/06/08 00:45:52;;;;;;;4.22;3.83;;;;;;;17.80;55.24;100570.19;5014447;28;20064;-83
2021/06/08 00:48:20;;;;;;;5.97;4.32;;;;;;;17.80;55.64;100569.34;5014286;28;20050;-83
2021/06/08 00:50:56;;;;;;;5.38;3.85;;;;;;;17.74;55.45;100565.34;5012801;28;20054;-83
2021/06/08 00:53:24;;;;;;;4.40;4.00;;;;;;;17.74;55.47;100562.66;5014617;28;20061;-83
2021/06/08 00:55:51;;;;;;;3.65;3.28;;;;;;;17.70;55.13;100564.72;5014601;28;20058;-83
2021/06/08 00:58:26;;;;;;;7.57;3.58;;;;;;;17.65;55.01;100566.03;5014394;28;20050;-83
2021/06/08 01:00:53;;;;;;;8.82;3.63;;;;;;;17.65;55.16;100563.34;5014541;28;20058;-83
2021/06/08 01:03:20;;;;;;;6.22;3.60;;;;;;;17.63;55.61;100562.59;5014080;28;20100;-83
2021/06/08 01:05:47;;;;;;;4.18;3.78;;;;;;;17.60;55.38;100569.00;5013285;28;20062;-83
2021/06/08 01:08:13;;;;;;;5.28;3.75;;;;;;;17.58;55.27;100568.28;4994700;28;20546;-83
2021/06/08 01:10:41;;;;;;;5.07;3.88;;;;;;;17.55;55.22;100566.72;4994596;28;20065;-83
2021/06/08 01:13:08;;;;;;;4.25;3.40;;;;;;;17.54;54.78;100566.81;4994666;28;20058;-83
2021/06/08 01:15:34;;;;;;;5.47;3.83;;;;;;;17.51;55.25;100561.72;4994446;28;20057;-83
2021/06/08 01:18:04;;;;;;;4.85;3.42;;;;;;;17.48;55.56;100565.44;4994939;28;20054;-83
2021/06/08 01:20:31;;;;;;;6.97;3.72;;;;;;;17.49;55.60;100564.47;4994579;28;20112;-83
2021/06/08 01:22:58;;;;;;;5.10;3.58;;;;;;;17.50;55.70;100560.00;4999763;28;20057;-83
2021/06/08 01:25:26;;;;;;;5.00;4.13;;;;;;;17.52;55.88;100568.72;5013529;28;20061;-83
2021/06/08 01:27:54;;;;;;;6.75;3.75;;;;;;;17.55;55.78;100563.19;5013701;28;20050;-83
2021/06/08 01:30:24;;;;;;;9.10;4.18;;;;;;;17.57;55.79;100558.63;5013892;28;20479;-83
2021/06/08 01:32:51;;;;;;;7.97;4.00;;;;;;;17.62;55.85;100563.56;5013872;28;20056;-83
2021/06/08 01:35:24;;;;;;;4.75;3.80;;;;;;;17.65;55.81;100558.03;5013059;28;20050;-83
2021/06/08 01:37:53;;;;;;;4.22;3.83;;;;;;;17.73;55.80;100568.97;5004731;28;20042;-83
2021/06/08 01:40:28;;;;;;;3.90;3.35;;;;;;;17.75;55.94;100559.03;4994764;28;20553;-83
2021/06/08 01:42:58;;;;;;;5.15;3.80;;;;;;;17.82;56.05;100562.09;4994704;28;20128;-83
2021/06/08 01:45:29;;;;;;;5.05;3.90;;;;;;;17.87;55.95;100561.75;4994928;28;20054;-83
2021/06/08 01:48:01;;;;;;;4.95;3.60;;;;;;;17.90;55.88;100559.69;4994347;28;20086;-83
2021/06/08 01:50:31;;;;;;;5.30;3.95;;;;;;;17.95;56.00;100567.34;4994027;28;20046;-83
2021/06/08 01:53:08;;;;;;;5.47;3.85;;;;;;;17.95;55.89;100551.38;4994749;28;20054;-83
2021/06/08 01:55:39;;;;;;;4.93;3.55;;;;;;;18.00;55.73;100551.88;4993375;28;20561;-83
2021/06/08 01:58:34;;;;;;;7.20;4.18;;;;;;;17.99;55.43;100555.50;4993857;28;20053;-83
2021/06/08 02:01:32;;;;;;;5.65;4.22;;;;;;;18.03;55.81;100548.13;5006669;28;20112;-83
2021/06/08 02:04:16;;;;;;;5.90;3.80;;;;;;;18.06;55.57;100546.06;5000894;28;20137;-83
2021/06/08 02:06:52;;;;;;;4.47;3.85;;;;;;;18.09;55.45;100551.19;4993383;28;20050;-83
2021/06/08 02:09:36;;;;;;;7.65;4.18;;;;;;;18.10;55.61;100557.38;4993434;28;20058;-83
2021/06/08 02:12:15;;;;;;;5.00;4.10;;;;;;;18.13;55.97;100550.97;4993614;28;20510;-83
2021/06/08 02:14:48;;;;;;;3.47;3.17;;;;;;;18.14;55.61;100558.84;4993130;28;20073;-83
2021/06/08 02:17:23;;;;;;;6.20;3.97;;;;;;;18.15;55.62;100563.22;4994027;28;20047;-83
2021/06/08 02:19:52;;;;;;;6.15;4.43;;;;;;;18.17;55.33;100563.09;4993409;28;20388;-83
2021/06/08 02:22:22;;;;;;;4.63;3.95;;;;;;;18.16;55.55;100556.91;4993192;28;20050;-83
2021/06/08 02:24:50;;;;;;;8.82;4.57;;;;;;;18.17;55.60;100560.44;4993040;28;20060;-83
2021/06/08 02:27:20;;;;;;;8.73;4.30;;;;;;;18.16;55.41;100562.25;4993109;28;20055;-83
2021/06/08 02:29:51;;;;;;;5.78;4.03;;;;;;;18.16;55.71;100564.06;4992864;28;20054;-83
2021/06/08 02:32:19;;;;;;;6.03;4.07;;;;;;;18.16;55.79;100564.91;4997338;28;20505;-83
2021/06/08 02:34:46;;;;;;;5.00;3.88;;;;;;;18.16;55.50;100559.56;5011773;28;20058;-83
2021/06/08 02:37:14;;;;;;;6.03;4.28;;;;;;;18.17;55.55;100563.94;5012473;28;20557;-83
2021/06/08 02:39:43;;;;;;;5.20;4.53;;;;;;;18.17;55.63;100568.44;5012538;28;20068;-83
2021/06/08 02:42:12;;;;;;;4.45;3.67;;;;;;;18.17;55.67;100563.94;5012231;28;20053;-83
2021/06/08 02:44:41;;;;;;;4.80;3.85;;;;;;;18.17;56.01;100568.44;5011897;28;20066;-83
2021/06/08 02:47:08;;;;;;;5.07;3.65;;;;;;;18.16;55.61;100569.41;5012362;28;20049;-83
2021/06/08 02:49:38;;;;;;;5.60;4.20;;;;;;;18.15;55.67;100567.69;5000027;28;20133;-83
2021/06/08 02:52:06;;;;;;;4.38;3.78;;;;;;;18.15;55.64;100559.69;4992562;28;20058;-83
2021/06/08 02:54:34;;;;;;;6.20;4.38;;;;;;;18.14;55.80;100563.31;4992612;28;20060;-83
2021/06/08 02:57:03;;;;;;;8.68;4.75;;;;;;;18.13;56.07;100562.47;4993153;28;20403;-83
2021/06/08 02:59:33;;;;;;;5.35;4.50;;;;;;;18.13;55.65;100566.97;4994065;28;20421;-83
2021/06/08 03:02:12;;;;;;;5.88;4.47;;;;;;;18.12;56.12;100570.59;4992775;28;20113;-83
2021/06/08 03:04:57;;;;;;;5.43;4.20;;;;;;;18.11;55.99;100559.09;4992165;28;20061;-83
2021/06/08 03:07:27;;;;;;;4.90;4.35;;;;;;;18.14;55.96;100564.19;4993524;28;20061;-83
2021/06/08 03:10:00;;;;;;;4.55;3.97;;;;;;;18.14;55.95;100564.19;4992555;28;20414;-83
2021/06/08 03:12:31;;;;;;;7.82;4.50;;;;;;;18.16;56.15;100561.41;4898620;29;20512;-83
2021/06/08 03:15:03;;;;;;;7.30;4.90;;;;;;;18.15;56.11;100565.00;4898842;29;20063;-83
2021/06/08 03:17:32;;;;;;;5.65;4.78;;;;;;;18.16;55.75;100561.41;4899044;29;20572;-83
2021/06/08 03:20:09;;;;;;;6.28;4.68;;;;;;;18.15;56.05;100565.88;4899196;29;20051;-83
2021/06/08 03:22:37;;;;;;;7.40;5.22;;;;;;;18.16;55.93;100562.25;4898994;29;20155;-83
2021/06/08 03:25:04;;;;;;;10.60;4.68;;;;;;;18.16;55.73;100564.91;4898955;29;20058;-83
2021/06/08 03:27:39;;;;;;;8.20;4.75;;;;;;;18.14;56.36;100563.31;4917166;29;20239;-83
2021/06/08 03:30:06;;;;;;;5.70;4.75;;;;;;;18.16;55.97;100567.56;4942550;28;20064;-83
2021/06/08 03:32:35;;;;;;;8.48;5.00;;;;;;;18.17;56.21;100571.09;5011829;28;20062;-83
2021/06/08 03:35:06;;;;;;;6.95;5.38;;;;;;;18.16;56.53;100566.75;5011397;28;20054;-83
2021/06/08 03:37:34;;;;;;;7.60;5.47;;;;;;;18.16;56.13;100566.75;5011622;28;20053;-83
2021/06/08 03:40:02;;;;;;;8.07;5.05;;;;;;;18.17;56.24;100568.44;5011883;28;20097;-83
2021/06/08 03:42:31;;;;;;;8.35;4.68;;;;;;;18.15;56.49;100567.69;5003553;28;20122;-83
2021/06/08 03:44:59;;;;;;;6.65;4.97;;;;;;;18.17;56.50;100571.09;4993223;28;20058;-83
2021/06/08 03:47:26;;;;;;;5.03;4.55;;;;;;;18.16;56.58;100572.06;4992062;28;20483;-83
2021/06/08 03:49:55;;;;;;;11.30;5.30;;;;;;;18.15;56.69;100575.66;4992154;28;20100;-83
2021/06/08 03:52:25;;;;;;;6.60;4.72;;;;;;;18.13;56.71;100573.13;4991977;28;20656;-83
2021/06/08 03:54:52;;;;;;;8.00;5.80;;;;;;;18.14;56.53;100580.16;4992221;28;20420;-83
2021/06/08 03:57:27;;;;;;;7.38;5.22;;;;;;;18.13;56.71;100573.13;4996256;28;20053;-83
2021/06/08 03:59:58;;;;;;;5.50;5.00;;;;;;;18.13;57.13;100574.94;5014492;28;20061;-83
2021/06/08 04:02:26;;;;;;;6.80;5.57;;;;;;;18.16;56.82;100577.41;5015334;28;20072;-83
2021/06/08 04:04:52;;;;;;;10.32;5.72;;;;;;;18.16;56.83;100567.56;5015408;28;20060;-83
2021/06/08 04:07:20;;;;;;;7.28;5.82;;;;;;;18.18;56.89;100570.13;5015658;28;20062;-83
2021/06/08 04:09:57;;;;;;;6.60;5.65;;;;;;;18.15;57.28;100568.53;5015557;28;20062;-83
2021/06/08 04:12:24;;;;;;;6.80;5.70;;;;;;;18.21;56.97;100567.22;5015483;28;20058;-83
2021/06/08 04:14:51;;;;;;;10.07;5.95;;;;;;;18.22;56.96;100568.91;5013580;28;20092;-83
2021/06/08 04:17:19;;;;;;;8.73;6.47;;;;;;;18.23;57.27;100575.94;5015085;28;20058;-83
2021/06/08 04:19:47;;;;;;;8.50;6.40;;;;;;;18.23;57.36;100568.81;5015295;28;20058;-83
2021/06/08 04:22:28;;;;;;;9.52;6.43;;;;;;;18.21;57.50;100564.56;5015141;28;20076;-83
2021/06/08 04:24:58;;;;;;;6.45;5.82;;;;;;;18.23;57.27;100565.28;5014725;28;20071;-83
2021/06/08 04:27:26;;;;;;;8.05;6.38;;;;;;;18.23;57.39;100568.81;5015188;28;20413;-83
2021/06/08 04:29:54;;;;;;;7.15;5.57;;;;;;;18.24;57.34;100566.97;5014984;28;20053;-83
2021/06/08 04:32:32;;;;;;;7.95;6.05;;;;;;;18.21;58.00;100576.06;5002563;28;20137;-83
2021/06/08 04:35:00;;;;;;;7.70;5.65;;;;;;;18.26;57.44;100573.03;4995222;28;20501;-83
2021/06/08 04:37:27;;;;;;;8.05;5.95;;;;;;;18.27;57.70;100576.56;4994901;28;20085;-83
2021/06/08 04:39:54;;;;;;;8.88;6.10;;;;;;;18.29;57.63;100578.16;4994638;28;20050;-83
2021/06/08 04:42:21;;;;;;;6.93;5.70;;;;;;;18.30;57.75;100576.31;4994742;28;20058;-83
2021/06/08 04:44:50;;;;;;;9.65;5.95;;;;;;;18.30;57.92;100577.19;4995084;28;20392;-83
2021/06/08 04:47:21;;;;;;;9.07;6.38;;;;;;;18.31;57.91;100576.19;4995130;28;20398;-83
2021/06/08 04:49:54;;;;;;;6.20;5.45;;;;;;;18.30;58.15;100581.66;5013071;28;20490;-83
2021/06/08 04:52:21;;;;;;;7.30;5.90;;;;;;;18.33;57.57;100579.63;5014454;28;20057;-83
2021/06/08 04:54:49;;;;;;;6.82;6.03;;;;;;;18.32;57.93;100575.22;5014140;28;20056;-83
2021/06/08 04:57:17;;;;;;;9.88;5.47;;;;;;;18.32;57.94;100577.91;5014864;28;20062;-83
2021/06/08 04:59:44;;;;;;;6.55;5.78;;;;;;;18.34;57.84;100569.78;5014245;28;20054;-83
2021/06/08 05:02:25;;;;;;;9.23;6.72;;;;;;;18.31;58.53;100565.53;5014513;28;20562;-83
2021/06/08 05:07:30;;;;;;;10.30;6.35;;;;;;;18.36;58.33;100560.69;5151835;22;20055;-86
2021/06/08 05:10:06;;;;;;;7.72;6.32;;;;;;;18.39;58.18;100567.59;5043264;28;20126;-86
2021/06/08 05:12:34;;;;;;;7.82;6.45;;;;;;;18.41;58.20;100571.03;5052167;28;20053;-84
2021/06/08 05:15:02;;;;;;;8.70;6.60;;;;;;;18.45;58.37;100572.47;5036616;28;20053;-86
2021/06/08 05:17:31;;;;;;;9.07;7.15;;;;;;;18.47;58.79;100570.53;5036964;28;20060;-85
2021/06/08 05:19:58;;;;;;;8.98;6.95;;;;;;;18.52;58.61;100578.19;5036918;28;20122;-86
2021/06/08 05:22:25;;;;;;;7.78;6.93;;;;;;;18.56;58.51;100573.44;5036755;28;20059;-86
2021/06/08 05:24:56;;;;;;;8.27;6.97;;;;;;;18.60;58.96;100574.91;5054212;28;20094;-85
2021/06/08 05:27:23;;;;;;;11.85;7.78;;;;;;;18.65;58.62;100572.72;5053886;28;20506;-85
2021/06/08 05:29:56;;;;;;;9.00;7.43;;;;;;;18.68;58.94;100575.16;5036749;28;20049;-86
2021/06/08 05:32:23;;;;;;;10.55;6.82;;;;;;;18.75;58.59;100578.19;5036400;28;20060;-86
2021/06/08 05:34:50;;;;;;;9.27;7.25;;;;;;;18.79;58.68;100576.97;5036388;28;20057;-86
2021/06/08 05:37:17;;;;;;;11.50;9.20;;;;;;;18.83;58.67;100575.78;5036201;28;20497;-86
2021/06/08 05:39:45;;;;;;;11.98;8.02;;;;;;;18.88;58.93;100578.91;5054971;28;20052;-86
2021/06/08 05:42:16;;;;;;;10.27;8.13;;;;;;;18.94;58.95;100587.41;5035815;28;20134;-85
2021/06/08 05:44:43;;;;;;;10.82;7.72;;;;;;;18.98;58.90;100581.72;5053993;28;20095;-86
2021/06/08 05:47:10;;;;;;;9.63;7.63;;;;;;;19.02;58.71;100574.31;5054182;28;20391;-86
2021/06/08 05:49:38;;;;;;;10.35;7.93;;;;;;;19.06;58.48;100575.78;5036155;28;20095;-86
2021/06/08 05:52:07;;;;;;;10.23;7.88;;;;;;;19.10;59.05;100581.75;5035949;28;20068;-86
2021/06/08 05:54:35;;;;;;;13.93;8.10;;;;;;;19.15;58.88;100590.22;5035713;28;20059;-86
2021/06/08 05:57:02;;;;;;;11.40;8.43;;;;;;;19.19;58.97;100582.81;5036374;28;20064;-86
2021/06/08 05:59:29;;;;;;;11.77;8.60;;;;;;;19.22;58.78;100585.25;5035940;28;20049;-85
2021/06/08 06:01:56;;;;;;;12.90;8.52;;;;;;;19.24;58.85;100581.47;5036595;28;20433;-86
2021/06/08 06:04:25;;;;;;;9.52;8.45;;;;;;;19.27;58.67;100583.91;5035079;28;20103;-86
2021/06/08 06:06:52;;;;;;;9.57;8.23;;;;;;;19.30;58.57;100581.94;5035294;28;20418;-86
2021/06/08 06:09:22;;;;;;;11.45;8.02;;;;;;;19.33;58.73;100587.03;5053274;28;20057;-86
2021/06/08 06:11:52;;;;;;;11.90;8.55;;;;;;;19.34;59.05;100589.59;5036085;28;20501;-86
2021/06/08 06:14:21;;;;;;;10.02;8.18;;;;;;;19.36;58.93;100584.97;5052672;28;20052;-85
2021/06/08 06:16:52;;;;;;;10.07;8.93;;;;;;;19.41;59.07;100584.59;5053102;28;20049;-86
2021/06/08 06:19:23;;;;;;;9.13;8.23;;;;;;;19.47;59.12;100585.94;5034504;28;20085;-85
2021/06/08 06:21:54;;;;;;;12.85;9.32;;;;;;;19.55;59.53;100580.78;5053030;28;20045;-86
2021/06/08 06:24:21;;;;;;;10.10;8.90;;;;;;;19.64;59.29;100585.41;5052692;28;20068;-86
2021/06/08 06:26:48;;;;;;;9.95;8.95;;;;;;;19.70;58.81;100592.03;5055813;28;20124;-85
2021/06/08 06:29:16;;;;;;;10.75;9.70;;;;;;;19.76;58.74;100586.19;5053386;28;20061;-85
2021/06/08 06:31:47;;;;;;;12.98;9.00;;;;;;;19.80;58.81;100589.44;5036866;28;20060;-87
2021/06/08 06:34:18;;;;;;;11.02;9.48;;;;;;;19.84;58.65;100593.56;5053139;28;20049;-85
2021/06/08 06:36:47;;;;;;;10.77;9.02;;;;;;;19.86;58.61;100588.97;5035240;28;20122;-86
2021/06/08 06:39:24;;;;;;;11.35;9.65;;;;;;;19.84;58.19;100587.38;5035142;28;20056;-88
2021/06/08 06:41:54;;;;;;;14.88;9.95;;;;;;;19.85;58.43;100584.56;5035622;28;20556;-86
2021/06/08 06:44:25;;;;;;;10.88;9.77;;;;;;;19.84;58.24;100588.22;5028295;28;20049;-87
2021/06/08 06:46:52;;;;;;;12.95;10.80;;;;;;;19.85;58.18;100584.56;5033172;28;20486;-88
2021/06/08 06:49:20;;;;;;;12.25;11.02;;;;;;;19.86;58.68;100591.63;5015341;28;20507;-87
2021/06/08 06:51:48;;;;;;;11.80;10.30;;;;;;;19.90;58.78;100600.22;5015091;28;20053;-87
2021/06/08 06:54:15;;;;;;;11.77;10.57;;;;;;;19.93;58.64;100603.47;5032467;28;20274;-87
2021/06/08 06:56:44;;;;;;;13.85;10.70;;;;;;;19.98;58.92;100600.47;5034504;28;20120;-86
2021/06/08 06:59:11;;;;;;;12.38;11.07;;;;;;;20.04;58.73;100597.28;5034747;28;20045;-87
2021/06/08 07:01:41;;;;;;;14.82;11.00;;;;;;;20.11;58.55;100594.94;5035221;28;20059;-87
2021/06/08 07:04:10;;;;;;;13.45;11.93;;;;;;;20.16;58.64;100605.25;5034655;28;20053;-86
2021/06/08 07:06:40;;;;;;;13.38;12.00;;;;;;;20.22;58.65;100603.88;5034804;28;20433;-87
2021/06/08 07:09:08;;;;;;;12.48;10.80;;;;;;;20.28;58.81;100603.34;5028605;28;20049;-87
2021/06/08 07:11:36;;;;;;;12.50;10.90;;;;;;;20.34;58.56;100596.63;5014744;28;20072;-88
2021/06/08 07:14:03;;;;;;;17.58;11.40;;;;;;;20.40;58.79;100604.97;5032021;28;20061;-87
2021/06/08 07:16:30;;;;;;;14.85;10.85;;;;;;;20.49;58.85;100605.19;5015408;28;20053;-87
2021/06/08 07:18:57;;;;;;;14.02;12.52;;;;;;;20.57;58.84;100610.72;5032549;28;20588;-86
2021/06/08 07:21:24;;;;;;;13.23;11.73;;;;;;;20.67;59.11;100605.44;5014912;28;20112;-87
2021/06/08 07:23:55;;;;;;;13.70;12.30;;;;;;;20.75;58.92;100607.44;5014706;28;20053;-87
2021/06/08 07:26:24;;;;;;;13.45;12.10;;;;;;;20.89;58.52;100611.63;5015627;28;20053;-86
2021/06/08 07:28:53;;;;;;;12.35;11.18;;;;;;;20.98;58.68;100604.59;5014542;28;20057;-87
2021/06/08 07:31:44;;;;;;;13.05;11.75;;;;;;;21.08;58.90;100613.50;5014662;28;20104;-88
2021/06/08 07:34:20;;;;;;;16.08;12.23;;;;;;;21.22;58.43;100607.78;5032170;28;20053;-87
2021/06/08 07:36:47;;;;;;;13.55;12.25;;;;;;;21.35;58.37;100614.72;5032323;28;20053;-87
2021/06/08 07:39:40;;;;;;;12.90;11.52;;;;;;;21.39;58.04;100617.97;5014704;28;20045;-87
2021/06/08 07:42:15;;;;;;;13.27;11.95;;;;;;;21.52;58.07;100620.41;5014880;28;20053;-87
2021/06/08 07:44:58;;;;;;;15.48;12.40;;;;;;;21.59;57.71;100621.53;5014279;28;20049;-87
2021/06/08 07:47:27;;;;;;;14.15;12.65;;;;;;;21.69;57.66;100622.41;5032263;28;20522;-87
2021/06/08 07:49:56;;;;;;;16.77;13.52;;;;;;;21.80;57.61;100625.97;5031913;28;20052;-87
2021/06/08 07:52:25;;;;;;;18.30;13.18;;;;;;;21.87;57.41;100619.06;5014421;28;20073;-87
2021/06/08 07:54:52;;;;;;;16.88;12.43;;;;;;;21.94;57.19;100614.81;5014416;28;20053;-87
2021/06/08 07:57:20;;;;;;;14.68;13.05;;;;;;;22.01;57.33;100620.47;5031833;28;20411;-88
2021/06/08 07:59:48;;;;;;;13.85;12.38;;;;;;;22.07;57.23;100619.91;5031775;28;20053;-87
2021/06/08 08:02:24;;;;;;;15.18;12.63;;;;;;;22.09;56.89;100631.31;5051601;28;20514;-88
2021/06/08 08:04:52;;;;;;;13.98;12.55;;;;;;;22.19;56.75;100631.34;5034051;28;20506;-87
2021/06/08 08:07:23;;;;;;;15.07;13.50;;;;;;;22.24;56.62;100630.91;5034043;28;20053;-87
2021/06/08 08:09:52;;;;;;;17.95;13.10;;;;;;;22.29;56.76;100622.44;5034237;28;20072;-87
2021/06/08 08:12:19;;;;;;;14.90;12.95;;;;;;;22.35;56.51;100630.75;5033820;28;20057;-88
2021/06/08 08:14:48;;;;;;;15.43;13.75;;;;;;;22.40;56.73;100627.63;5034062;28;20072;-88
2021/06/08 08:17:18;;;;;;;17.02;13.75;;;;;;;22.47;56.27;100622.53;5034387;28;20052;-88
2021/06/08 08:19:46;;;;;;;15.48;13.85;;;;;;;22.56;56.36;100636.94;5052208;28;20053;-88
2021/06/08 08:22:15;;;;;;;15.18;13.15;;;;;;;22.62;56.29;100623.78;5051175;28;20513;-87
2021/06/08 08:24:42;;;;;;;14.63;13.07;;;;;;;22.71;56.05;100627.47;5051627;28;20407;-87
2021/06/08 08:27:08;;;;;;;14.80;13.15;;;;;;;22.80;56.35;100633.78;5034096;28;20056;-87
2021/06/08 08:29:37;;;;;;;16.13;14.07;;;;;;;22.87;56.05;100625.97;5033602;28;20098;-87
2021/06/08 08:32:04;;;;;;;15.80;13.57;;;;;;;22.95;56.36;100634.13;5050023;28;20060;-87
2021/06/08 08:34:31;;;;;;;15.82;14.18;;;;;;;23.04;55.94;100635.97;5033474;28;20057;-87
2021/06/08 08:36:58;;;;;;;15.93;13.45;;;;;;;23.14;55.91;100633.22;5051565;28;20052;-88
2021/06/08 08:39:24;;;;;;;14.95;12.75;;;;;;;23.21;55.46;100632.63;5033737;28;20056;-88
2021/06/08 08:41:53;;;;;;;15.02;13.43;;;;;;;23.27;55.35;100640.94;5036103;28;20056;-89
2021/06/08 08:44:19;;;;;;;16.45;14.60;;;;;;;23.34;55.51;100630.47;5054998;28;20501;-88
2021/06/08 08:46:46;;;;;;;15.38;13.80;;;;;;;23.39;55.16;100630.00;5037395;28;20057;-87
2021/06/08 08:49:13;;;;;;;17.45;14.13;;;;;;;23.45;55.37;100626.72;5042371;28;20135;-88
2021/06/08 08:51:42;;;;;;;17.80;14.38;;;;;;;23.53;55.56;100624.13;5017818;28;20060;-87
2021/06/08 08:54:11;;;;;;;16.10;13.93;;;;;;;23.62;54.95;100632.28;5017229;28;20049;-89
2021/06/08 08:56:39;;;;;;;15.70;13.75;;;;;;;23.72;55.11;100625.00;5017551;28;20482;-89
2021/06/08 08:59:09;;;;;;;15.80;13.82;;;;;;;23.80;55.15;100618.84;5017372;28;20514;-88
2021/06/08 09:01:37;;;;;;;14.68;13.25;;;;;;;23.89;55.00;100620.59;5017534;28;20061;-88
2021/06/08 09:04:06;;;;;;;15.60;14.00;;;;;;;23.95;54.58;100617.31;5016964;28;20057;-88
2021/06/08 09:06:33;;;;;;;15.13;13.52;;;;;;;24.01;54.47;100615.84;5034541;28;20482;-87
2021/06/08 09:09:01;;;;;;;15.05;13.52;;;;;;;24.07;53.82;100617.09;5036888;28;20049;-87
2021/06/08 09:11:38;;;;;;;16.33;13.52;;;;;;;24.10;54.08;100614.09;5036964;28;20049;-88
2021/06/08 09:14:06;;;;;;;14.27;12.90;;;;;;;24.14;54.82;100615.47;5021895;28;20140;-88
2021/06/08 09:16:34;;;;;;;18.17;13.38;;;;;;;24.20;54.76;100608.63;5054469;28;20045;-87
2021/06/08 09:19:04;;;;;;;15.57;13.45;;;;;;;24.28;54.36;100607.84;5054499;28;20053;-88
2021/06/08 09:21:37;;;;;;;14.82;13.35;;;;;;;24.34;53.91;100609.91;5052282;28;20057;-88
2021/06/08 09:24:26;;;;;;;15.15;13.38;;;;;;;24.38;53.73;100607.75;5036907;28;20063;-87
2021/06/08 09:27:07;;;;;;;14.50;12.85;;;;;;;24.46;53.23;100611.34;5036543;28;20064;-88
2021/06/08 09:29:40;;;;;;;16.00;14.32;;;;;;;24.53;53.01;100603.50;5054145;28;20465;-88
2021/06/08 09:32:29;;;;;;;14.95;13.13;;;;;;;24.56;53.66;100597.78;5036335;28;20140;-89
2021/06/08 09:35:03;;;;;;;14.68;13.27;;;;;;;24.64;54.02;100599.69;5036532;28;20445;-86
2021/06/08 09:37:35;;;;;;;16.15;13.13;;;;;;;24.70;53.61;100598.19;5034640;28;20061;-87
2021/06/08 09:40:26;;;;;;;13.40;12.10;;;;;;;24.74;53.48;100588.78;5036362;28;20052;-87
2021/06/08 09:43:02;;;;;;;14.60;12.57;;;;;;;24.83;52.10;100587.84;5037099;28;20052;-89
2021/06/08 09:45:45;;;;;;;15.07;13.52;;;;;;;24.87;53.13;100585.69;5053724;28;20579;-88
2021/06/08 09:48:14;;;;;;;14.70;13.25;;;;;;;24.93;52.83;100585.03;5036303;28;20429;-88
2021/06/08 09:50:42;;;;;;;16.08;13.70;;;;;;;24.95;52.89;100584.88;5053564;28;20060;-87
2021/06/08 09:53:17;;;;;;;15.20;13.55;;;;;;;24.95;52.32;100582.19;5036166;28;20056;-89
2021/06/08 09:55:53;;;;;;;15.23;13.65;;;;;;;24.97;53.31;100577.50;5023145;28;20511;-87
2021/06/08 09:58:21;;;;;;;16.38;13.05;;;;;;;25.02;52.79;100577.84;5033686;28;20490;-88
2021/06/08 10:01:07;;;;;;;14.40;12.90;;;;;;;25.01;52.48;100581.56;5015923;28;20053;-89
2021/06/08 10:03:38;;;;;;;14.80;13.32;;;;;;;25.07;52.47;100580.88;5033413;28;20483;-88
2021/06/08 10:06:10;;;;;;;14.35;12.80;;;;;;;25.10;51.37;100577.88;5033712;28;20054;-88
2021/06/08 10:08:38;;;;;;;14.63;12.23;;;;;;;25.15;52.67;100577.38;5016139;28;20061;-89
2021/06/08 10:11:18;;;;;;;16.80;13.15;;;;;;;25.14;52.07;100567.59;5033933;28;20299;-88
2021/06/08 10:13:45;;;;;;;17.33;14.13;;;;;;;25.20;51.93;100579.59;5015904;28;20060;-88
2021/06/08 10:16:23;;;;;;;15.02;13.32;;;;;;;25.18;51.91;100577.03;5015914;28;20057;-88
2021/06/08 10:18:50;;;;;;;14.65;13.15;;;;;;;25.26;52.32;100570.00;5015972;28;20144;-88
2021/06/08 10:21:42;;;;;;;13.15;11.75;;;;;;;25.28;51.89;100570.66;5015901;28;20153;-88
2021/06/08 10:24:11;;;;;;;13.63;11.98;;;;;;;25.41;52.32;100572.91;5033752;28;20069;-86
2021/06/08 10:26:41;;;;;;;12.25;11.05;;;;;;;25.52;51.77;100577.13;5016070;28;20065;-85
2021/06/08 10:29:11;;;;;;;11.77;10.57;;;;;;;25.62;51.84;100581.38;5028436;28;20052;-86
2021/06/08 10:31:41;;;;;;;11.60;10.50;;;;;;;25.73;52.07;100572.13;5052863;28;20107;-85
2021/06/08 10:34:29;;;;;;;11.30;10.20;;;;;;;25.90;51.42;100564.03;5037951;28;20083;-86
2021/06/08 10:36:57;;;;;;;12.88;11.57;;;;;;;26.05;51.65;100566.88;5025879;28;20057;-86
2021/06/08 10:39:25;;;;;;;12.20;11.00;;;;;;;26.25;51.69;100570.09;5033279;28;20050;-86
2021/06/08 10:41:52;;;;;;;13.48;10.95;;;;;;;26.48;52.11;100563.13;5015354;28;20467;-86
2021/06/08 10:44:25;;;;;;;11.73;10.48;;;;;;;26.74;52.19;100570.16;5015133;28;20061;-87
2021/06/08 10:47:18;;;;;;;11.35;10.23;;;;;;;27.10;51.73;100569.66;5014633;28;20072;-87
2021/06/08 10:49:46;;;;;;;11.65;10.52;;;;;;;27.56;51.92;100566.19;5015020;28;20395;-87
2021/06/08 10:52:17;;;;;;;10.43;9.43;;;;;;;27.99;50.80;100566.75;5014385;28;20486;-87
2021/06/08 11:04:54;;;;;;;10.45;9.45;;;;;;;29.47;44.77;100549.75;4953430;28;20146;-86
2021/06/08 11:07:43;;;;;;;10.88;9.40;;;;;;;29.50;45.25;100557.50;4938486;29;20059;-86
2021/06/08 11:10:26;;;;;;;10.98;9.88;;;;;;;29.54;45.53;100554.41;4937853;29;20069;-86
2021/06/08 11:13:08;;;;;;;9.93;9.10;;;;;;;29.56;44.43;100555.06;4938673;29;20150;-86
2021/06/08 11:15:41;;;;;;;11.93;10.70;;;;;;;29.60;43.51;100553.66;4938394;29;20142;-86
2021/06/08 11:18:17;;;;;;;10.98;9.88;;;;;;;29.60;44.59;100564.50;4938681;29;20129;-86
2021/06/08 11:21:12;;;;;;;15.68;9.63;;;;;;;29.65;43.54;100562.88;4938325;29;20078;-86
2021/06/08 11:23:44;;;;;;;9.07;8.18;;;;;;;29.69;43.51;100562.50;4931222;29;20058;-86
2021/06/08 11:26:16;;;;;;;9.55;8.65;;;;;;;29.64;42.52;100572.03;4936665;29;20062;-86
2021/06/08 11:28:49;;;;;;;10.13;8.30;;;;;;;29.62;43.23;100567.84;4938514;29;20058;-87
2021/06/08 11:34:27;;;;;;;8.60;7.80;;;;;;;29.62;43.51;100565.13;4955309;29;20077;-86
2021/06/08 11:36:55;;;;;;;8.68;7.88;;;;;;;29.60;42.57;100567.22;4938057;29;20065;-86
2021/06/08 11:39:26;;;;;;;9.00;8.10;;;;;;;29.56;42.04;100568.63;4938320;29;20050;-86
2021/06/08 11:41:57;;;;;;;9.02;7.88;;;;;;;29.46;41.07;100568.91;4936322;29;20055;-86
2021/06/08 11:44:26;;;;;;;8.18;7.47;;;;;;;29.34;41.78;100555.84;4938131;29;20066;-86
2021/06/08 11:46:58;;;;;;;9.20;8.30;;;;;;;29.19;41.32;100566.75;4938377;29;20055;-86
2021/06/08 11:49:25;;;;;;;;;;;;;;;29.06;43.89;100569.31;4938494;29;20047;-86
2021/06/08 11:52:25;;;;;;;8.88;8.05;;;;;;;28.97;43.28;100561.28;4938205;29;20289;-86